Cruz Sagrada — CUHG3 — position and weather

sailwx.info

Track history (hours):
 
Tides and Currents Weather Stations Pressure Air Temp Water Temp Dewpoint Dewpoint Depression Visibility Wind Speed Wind Dir Waves Ship Positions

Cruz Sagrada

Last reported at 2017-Oct-03 22:28 UTC. Time now 2017-Oct-18 11:24 UTC.
Position N 38°26' W 009°07'.
Warning: this ship's position is 14 days out of date.

Length 18 m.

Type: Fishing. MMSI: 263290000.

Date/timePositionNaut miles runAvg speedWind from/ knotsBaromVisibWave heightAir tempDewpointWater temp
2017-Oct-03 22:28N 38°26' W 009°07'0 0.0
2017-Oct-03 22:00N 38°26' W 009°07'0 0.0
2017-Oct-03 21:30N 38°26' W 009°07'0 0.0
2017-Oct-03 21:00N 38°26' W 009°07'0 0.0
2017-Oct-03 20:30N 38°26' W 009°07'0 0.0
2017-Oct-03 20:00N 38°26' W 009°07'0 0.0
2017-Oct-03 19:30N 38°26' W 009°07'0 0.0
2017-Oct-03 19:00N 38°26' W 009°07'0 0.0
2017-Oct-03 18:30N 38°26' W 009°07'0 0.0
2017-Oct-03 18:00N 38°26' W 009°07'0 0.0
2017-Oct-03 17:30N 38°26' W 009°07'0 0.0
2017-Oct-03 17:00N 38°26' W 009°07'0 0.0
2017-Oct-03 16:30N 38°26' W 009°07'0 0.0
2017-Oct-03 16:00N 38°26' W 009°07'0 0.0
2017-Oct-03 15:30N 38°26' W 009°07'0 0.0
2017-Oct-03 15:00N 38°26' W 009°07'0 0.0
2017-Oct-03 14:00N 38°26' W 009°07'0 0.0
2017-Oct-03 13:29N 38°26' W 009°07'0 0.0
2017-Oct-03 12:59N 38°26' W 009°07'0 0.0
2017-Oct-03 12:30N 38°26' W 009°07'0 0.0
2017-Oct-03 12:00N 38°26' W 009°07'0 0.0
2017-Oct-03 11:30N 38°26' W 009°07'0 0.0
2017-Oct-03 11:00N 38°26' W 009°07'0 0.0
2017-Oct-03 10:30N 38°26' W 009°07'0 0.0
2017-Oct-03 10:00N 38°26' W 009°07'0 0.0
2017-Oct-03 09:30N 38°26' W 009°07'0 0.3
2017-Oct-03 09:00N 38°26' W 009°07'0 0.0
2017-Oct-03 08:26N 38°26' W 009°07'0 0.0
2017-Oct-03 07:58N 38°26' W 009°07'0 0.0
2017-Oct-03 07:30N 38°26' W 009°07'2 3.4
2017-Oct-03 07:00N 38°25' W 009°06'3 6.0
2017-Oct-03 06:30N 38°22' W 009°07'1 2.5
2017-Oct-03 06:00N 38°21' W 009°07'0 0.9
2017-Oct-03 05:30N 38°20' W 009°08'0 0.9
2017-Oct-03 05:00N 38°20' W 009°08'0 0.9
2017-Oct-03 04:30N 38°20' W 009°08'0 0.3
2017-Oct-03 04:00N 38°20' W 009°08'1 2.6
2017-Oct-03 03:30N 38°19' W 009°09'0 0.9
2017-Oct-03 03:00N 38°20' W 009°09'2 1.0
2017-Oct-03 01:04N 38°19' W 009°07'0 0.8
2017-Oct-03 01:00N 38°19' W 009°06'1 1.2
2017-Oct-03 00:30N 38°20' W 009°06'0 0.6
2017-Oct-03 00:00N 38°20' W 009°06'1 1.5
2017-Oct-02 23:30N 38°20' W 009°05'3 1.0
2017-Oct-02 21:00N 38°19' W 009°08'0 0.3
2017-Oct-02 20:29N 38°19' W 009°08'0 0.3
2017-Oct-02 20:00N 38°19' W 009°08'0 0.7
2017-Oct-02 19:30N 38°19' W 009°07'0 0.7
2017-Oct-02 19:00N 38°19' W 009°07'1 2.7
2017-Oct-02 18:30N 38°20' W 009°07'3 5.7
2017-Oct-02 18:00N 38°23' W 009°07'3 6.3
2017-Oct-02 17:30N 38°26' W 009°06'0 0.0
2017-Oct-02 03:38N 38°26' W 009°07'0 0.0
2017-Oct-02 03:30N 38°26' W 009°07'3 5.1
2017-Oct-02 03:00N 38°24' W 009°07'3 6.0
2017-Oct-02 02:30N 38°21' W 009°08'2 0.6
2017-Oct-01 22:47N 38°19' W 009°07'0 0.8
2017-Oct-01 22:26N 38°19' W 009°08'0 0.7
2017-Oct-01 22:00N 38°19' W 009°08'0 0.2
2017-Oct-01 21:30N 38°19' W 009°08'0 0.4
2017-Oct-01 21:00N 38°18' W 009°08'1 1.3
2017-Oct-01 20:30N 38°18' W 009°07'2 3.0
2017-Oct-01 20:00N 38°17' W 009°06'2 0.7
2017-Oct-01 17:32N 38°16' W 009°04'0 1.1
2017-Oct-01 17:30N 38°16' W 009°04'0 0.3
2017-Oct-01 17:00N 38°16' W 009°04'2 3.0
2017-Oct-01 16:30N 38°14' W 009°04'2 3.7
2017-Oct-01 16:00N 38°13' W 009°03'0 0.9
2017-Oct-01 15:30N 38°12' W 009°03'1 1.1
2017-Oct-01 15:00N 38°12' W 009°03'1 1.1
2017-Oct-01 14:30N 38°11' W 009°04'1 1.3
2017-Oct-01 14:00N 38°11' W 009°03'1 1.2
2017-Oct-01 13:30N 38°10' W 009°03'1 1.2
2017-Oct-01 13:00N 38°09' W 009°03'1 1.1
2017-Oct-01 12:30N 38°09' W 009°04'0 1.0
2017-Oct-01 12:00N 38°08' W 009°04'0 0.8
2017-Oct-01 11:31N 38°08' W 009°03'0 0.2
2017-Oct-01 11:01N 38°08' W 009°03'0 0.4
2017-Oct-01 10:30N 38°08' W 009°03'0 0.5
2017-Oct-01 10:00N 38°08' W 009°03'1 1.2
2017-Oct-01 09:30N 38°08' W 009°03'0 0.4
2017-Oct-01 09:00N 38°09' W 009°03'0 0.4
2017-Oct-01 08:30N 38°09' W 009°03'0 0.4
2017-Oct-01 08:00N 38°09' W 009°03'0 0.5
2017-Oct-01 07:30N 38°09' W 009°03'0 0.5
2017-Oct-01 07:00N 38°09' W 009°03'0 0.6
2017-Oct-01 06:30N 38°10' W 009°04'1 1.9
2017-Oct-01 06:00N 38°09' W 009°03'1 1.4
2017-Oct-01 05:30N 38°09' W 009°03'0 0.7
2017-Oct-01 05:00N 38°09' W 009°03'0 0.7
2017-Oct-01 04:30N 38°09' W 009°03'0 0.7
2017-Oct-01 04:00N 38°09' W 009°04'1 2.3
2017-Oct-01 03:30N 38°08' W 009°03'2 3.3
2017-Oct-01 03:01N 38°10' W 009°03'5 0.2
2017-Sep-30 01:40N 38°15' W 009°06'1 6.4
2017-Sep-30 01:30N 38°16' W 009°06'3 6.3
2017-Sep-30 01:00N 38°19' W 009°08'3 5.8
2017-Sep-30 00:30N 38°21' W 009°05'0 0.2
2017-Sep-30 00:00N 38°21' W 009°05'0 0.9
2017-Sep-29 23:29N 38°20' W 009°06'1 1.0
2017-Sep-29 23:00N 38°20' W 009°06'1 1.1
2017-Sep-29 22:29N 38°20' W 009°07'1 1.1
2017-Sep-29 21:59N 38°19' W 009°07'1 1.0
2017-Sep-29 21:27N 38°19' W 009°07'0 0.7
2017-Sep-29 21:00N 38°19' W 009°07'3 5.2
2017-Sep-29 20:30N 38°21' W 009°07'3 6.0
2017-Sep-29 20:00N 38°24' W 009°07'2 0.1
2017-Sep-29 03:59N 38°26' W 009°07'2 4.0
2017-Sep-29 03:30N 38°25' W 009°06'3 5.7
2017-Sep-29 03:01N 38°22' W 009°07'2 2.0
2017-Sep-29 02:00N 38°20' W 009°05'1 1.6
2017-Sep-29 01:30N 38°21' W 009°05'0 0.7
2017-Sep-29 01:00N 38°21' W 009°05'1 1.1
2017-Sep-29 00:30N 38°20' W 009°05'2 0.8
2017-Sep-28 22:16N 38°19' W 009°07'0 0.3
2017-Sep-28 22:00N 38°19' W 009°07'0 0.1
2017-Sep-28 21:31N 38°19' W 009°07'1 2.7
2017-Sep-28 21:01N 38°18' W 009°06'2 3.5
2017-Sep-28 20:31N 38°16' W 009°05'2 3.3
2017-Sep-28 20:01N 38°15' W 009°04'2 3.1
2017-Sep-28 19:31N 38°13' W 009°04'2 3.0
2017-Sep-28 19:01N 38°12' W 009°03'2 3.2
2017-Sep-28 18:30N 38°10' W 009°02'2 3.5
2017-Sep-28 18:00N 38°09' W 009°01'2 4.4
2017-Sep-28 17:31N 38°07' W 009°00'1 1.9
2017-Sep-28 17:01N 38°06' W 008°59'1 1.3
2017-Sep-28 16:31N 38°05' W 008°59'1 0.3
2017-Sep-28 11:45N 38°04' W 009°01'1 1.0
2017-Sep-28 10:37N 38°03' W 009°01'0 0.4
2017-Sep-28 10:30N 38°03' W 009°01'0 0.5
2017-Sep-28 10:00N 38°03' W 009°01'0 0.6
2017-Sep-28 09:30N 38°03' W 009°01'0 0.5
2017-Sep-28 09:00N 38°04' W 009°00'0 0.5
2017-Sep-28 08:30N 38°04' W 009°00'5 0.8
2017-Sep-28 03:01N 38°08' W 009°02'0 6.9
2017-Sep-28 03:00N 38°08' W 009°02'3 6.2
2017-Sep-28 02:30N 38°11' W 009°03'3 6.3
2017-Sep-28 02:00N 38°14' W 009°05'3 6.4
2017-Sep-28 01:30N 38°17' W 009°06'3 5.7
2017-Sep-28 01:00N 38°20' W 009°06'1 0.3
2017-Sep-27 22:00N 38°20' W 009°07'0 0.8
2017-Sep-27 21:30N 38°19' W 009°07'0 0.4
2017-Sep-27 20:57N 38°19' W 009°07'0 0.4
2017-Sep-27 20:29N 38°19' W 009°07'1 1.4
2017-Sep-27 19:38N 38°18' W 009°06'0 3.2
2017-Sep-27 19:30N 38°18' W 009°06'2 3.4
2017-Sep-27 19:00N 38°17' W 009°04'1 3.0
2017-Sep-27 18:30N 38°16' W 009°03'1 2.5
2017-Sep-27 18:00N 38°15' W 009°02'0 0.5
2017-Sep-27 17:30N 38°15' W 009°02'1 1.0
2017-Sep-27 17:00N 38°14' W 009°02'1 1.1
2017-Sep-27 16:08N 38°13' W 009°02'0 1.1
2017-Sep-27 16:00N 38°13' W 009°02'1 1.0
2017-Sep-27 15:30N 38°13' W 009°01'3 0.4
2017-Sep-27 08:51N 38°15' W 009°03'0 0.4
2017-Sep-27 08:30N 38°15' W 009°03'0 0.5
2017-Sep-27 08:00N 38°15' W 009°04'0 0.5
2017-Sep-27 07:30N 38°15' W 009°04'0 0.5
2017-Sep-27 07:00N 38°15' W 009°04'1 2.6
2017-Sep-27 06:30N 38°16' W 009°03'0 0.5
2017-Sep-27 06:00N 38°16' W 009°03'0 0.6
2017-Sep-27 05:30N 38°16' W 009°03'0 0.7
2017-Sep-27 05:00N 38°15' W 009°04'0 0.7
2017-Sep-27 04:30N 38°15' W 009°03'0 0.9
2017-Sep-27 04:00N 38°16' W 009°03'0 0.8
2017-Sep-27 03:30N 38°16' W 009°03'0 0.5
2017-Sep-27 03:00N 38°15' W 009°03'3 5.8
2017-Sep-27 02:30N 38°13' W 009°01'1 1.8
2017-Sep-27 02:00N 38°14' W 009°01'3 5.4
2017-Sep-27 01:30N 38°16' W 009°03'3 6.5
2017-Sep-27 01:00N 38°19' W 009°06'3 1.6
2017-Sep-26 23:13N 38°21' W 009°04'0 0.9
2017-Sep-26 22:59N 38°21' W 009°04'0 0.9
2017-Sep-26 22:30N 38°21' W 009°05'0 1.0
2017-Sep-26 22:00N 38°20' W 009°05'1 1.0
2017-Sep-26 21:30N 38°20' W 009°06'1 1.1
2017-Sep-26 20:58N 38°20' W 009°07'0 0.3
2017-Sep-26 20:30N 38°20' W 009°07'3 5.1
2017-Sep-26 20:00N 38°23' W 009°07'3 6.3
2017-Sep-26 19:29N 38°26' W 009°06'1 0.0
2017-Sep-26 05:21N 38°26' W 009°07'1 3.1
2017-Sep-26 05:00N 38°25' W 009°06'3 5.3
2017-Sep-26 04:30N 38°23' W 009°06'2 2.7
2017-Sep-26 03:38N 38°21' W 009°05'1 5.7
2017-Sep-26 03:30N 38°21' W 009°04'1 3.0
2017-Sep-26 03:00N 38°21' W 009°06'3 5.1
2017-Sep-26 02:30N 38°22' W 009°09'3 5.0
2017-Sep-26 01:56N 38°23' W 009°12'2 5.4
2017-Sep-26 01:30N 38°24' W 009°15'3 5.5
2017-Sep-26 01:00N 38°26' W 009°17'3 5.4
2017-Sep-26 00:30N 38°28' W 009°20'3 5.7
2017-Sep-26 00:00N 38°30' W 009°22'3 6.0
2017-Sep-25 23:30N 38°32' W 009°25'3 5.8
2017-Sep-25 23:00N 38°34' W 009°28'3 5.8
2017-Sep-25 22:30N 38°36' W 009°30'3 5.9
2017-Sep-25 22:00N 38°38' W 009°33'3 5.4
2017-Sep-25 21:30N 38°39' W 009°36'3 5.2
2017-Sep-25 21:00N 38°41' W 009°38'3 5.4
2017-Sep-25 20:30N 38°43' W 009°41'9 0.6
2017-Sep-25 05:52N 38°50' W 009°48'0 0.1
2017-Sep-25 05:30N 38°50' W 009°48'0 0.4
2017-Sep-25 05:00N 38°50' W 009°48'0 0.1
2017-Sep-25 04:30N 38°51' W 009°48'0 0.5
2017-Sep-25 04:00N 38°50' W 009°48'0 0.5
2017-Sep-25 03:30N 38°51' W 009°48'2 4.2
2017-Sep-25 03:00N 38°49' W 009°46'4 3.7
2017-Sep-25 01:54N 38°51' W 009°50'5 4.2
2017-Sep-25 00:44N 38°54' W 009°56'0 1.8
2017-Sep-25 00:29N 38°54' W 009°55'0 0.5
2017-Sep-24 23:56N 38°53' W 009°55'0 0.5
2017-Sep-24 23:30N 38°54' W 009°55'0 0.5
2017-Sep-24 22:59N 38°54' W 009°55'0 0.1
2017-Sep-24 20:55N 38°54' W 009°55'9 0.6
2017-Sep-24 04:26N 38°49' W 009°45'4 1.2
2017-Sep-24 00:57N 38°51' W 009°50'2 5.0
2017-Sep-24 00:30N 38°52' W 009°52'  
Track history (hours):
 
Tides and Currents Weather Stations Pressure Air Temp Water Temp Dewpoint Dewpoint Depression Visibility Wind Speed Wind Dir Waves Ship Positions

Cruz Sagrada

Last reported at 2017-Oct-03 22:28 UTC. Time now 2017-Oct-18 11:24 UTC.
Position N 38°26' W 009°07'.
Warning: this ship's position is 14 days out of date.

Length 18 m.

Type: Fishing. MMSI: 263290000.

Date/timePositionNaut miles runAvg speedWind from/ knotsBaromVisibWave heightAir tempDewpointWater temp
2017-Oct-03 22:28N 38°26' W 009°07'0 0.0
2017-Oct-03 22:00N 38°26' W 009°07'0 0.0
2017-Oct-03 21:30N 38°26' W 009°07'0 0.0
2017-Oct-03 21:00N 38°26' W 009°07'0 0.0
2017-Oct-03 20:30N 38°26' W 009°07'0 0.0
2017-Oct-03 20:00N 38°26' W 009°07'0 0.0
2017-Oct-03 19:30N 38°26' W 009°07'0 0.0
2017-Oct-03 19:00N 38°26' W 009°07'0 0.0
2017-Oct-03 18:30N 38°26' W 009°07'0 0.0
2017-Oct-03 18:00N 38°26' W 009°07'0 0.0
2017-Oct-03 17:30N 38°26' W 009°07'0 0.0
2017-Oct-03 17:00N 38°26' W 009°07'0 0.0
2017-Oct-03 16:30N 38°26' W 009°07'0 0.0
2017-Oct-03 16:00N 38°26' W 009°07'0 0.0
2017-Oct-03 15:30N 38°26' W 009°07'0 0.0
2017-Oct-03 15:00N 38°26' W 009°07'0 0.0
2017-Oct-03 14:00N 38°26' W 009°07'0 0.0
2017-Oct-03 13:29N 38°26' W 009°07'0 0.0
2017-Oct-03 12:59N 38°26' W 009°07'0 0.0
2017-Oct-03 12:30N 38°26' W 009°07'0 0.0
2017-Oct-03 12:00N 38°26' W 009°07'0 0.0
2017-Oct-03 11:30N 38°26' W 009°07'0 0.0
2017-Oct-03 11:00N 38°26' W 009°07'0 0.0
2017-Oct-03 10:30N 38°26' W 009°07'0 0.0
2017-Oct-03 10:00N 38°26' W 009°07'0 0.0
2017-Oct-03 09:30N 38°26' W 009°07'0 0.3
2017-Oct-03 09:00N 38°26' W 009°07'0 0.0
2017-Oct-03 08:26N 38°26' W 009°07'0 0.0
2017-Oct-03 07:58N 38°26' W 009°07'0 0.0
2017-Oct-03 07:30N 38°26' W 009°07'2 3.4
2017-Oct-03 07:00N 38°25' W 009°06'3 6.0
2017-Oct-03 06:30N 38°22' W 009°07'1 2.5
2017-Oct-03 06:00N 38°21' W 009°07'0 0.9
2017-Oct-03 05:30N 38°20' W 009°08'0 0.9
2017-Oct-03 05:00N 38°20' W 009°08'0 0.9
2017-Oct-03 04:30N 38°20' W 009°08'0 0.3
2017-Oct-03 04:00N 38°20' W 009°08'1 2.6
2017-Oct-03 03:30N 38°19' W 009°09'0 0.9
2017-Oct-03 03:00N 38°20' W 009°09'2 1.0
2017-Oct-03 01:04N 38°19' W 009°07'0 0.8
2017-Oct-03 01:00N 38°19' W 009°06'1 1.2
2017-Oct-03 00:30N 38°20' W 009°06'0 0.6
2017-Oct-03 00:00N 38°20' W 009°06'1 1.5
2017-Oct-02 23:30N 38°20' W 009°05'3 1.0
2017-Oct-02 21:00N 38°19' W 009°08'0 0.3
2017-Oct-02 20:29N 38°19' W 009°08'0 0.3
2017-Oct-02 20:00N 38°19' W 009°08'0 0.7
2017-Oct-02 19:30N 38°19' W 009°07'0 0.7
2017-Oct-02 19:00N 38°19' W 009°07'1 2.7
2017-Oct-02 18:30N 38°20' W 009°07'3 5.7
2017-Oct-02 18:00N 38°23' W 009°07'3 6.3
2017-Oct-02 17:30N 38°26' W 009°06'0 0.0
2017-Oct-02 03:38N 38°26' W 009°07'0 0.0
2017-Oct-02 03:30N 38°26' W 009°07'3 5.1
2017-Oct-02 03:00N 38°24' W 009°07'3 6.0
2017-Oct-02 02:30N 38°21' W 009°08'2 0.6
2017-Oct-01 22:47N 38°19' W 009°07'0 0.8
2017-Oct-01 22:26N 38°19' W 009°08'0 0.7
2017-Oct-01 22:00N 38°19' W 009°08'0 0.2
2017-Oct-01 21:30N 38°19' W 009°08'0 0.4
2017-Oct-01 21:00N 38°18' W 009°08'1 1.3
2017-Oct-01 20:30N 38°18' W 009°07'2 3.0
2017-Oct-01 20:00N 38°17' W 009°06'2 0.7
2017-Oct-01 17:32N 38°16' W 009°04'0 1.1
2017-Oct-01 17:30N 38°16' W 009°04'0 0.3
2017-Oct-01 17:00N 38°16' W 009°04'2 3.0
2017-Oct-01 16:30N 38°14' W 009°04'2 3.7
2017-Oct-01 16:00N 38°13' W 009°03'0 0.9
2017-Oct-01 15:30N 38°12' W 009°03'1 1.1
2017-Oct-01 15:00N 38°12' W 009°03'1 1.1
2017-Oct-01 14:30N 38°11' W 009°04'1 1.3
2017-Oct-01 14:00N 38°11' W 009°03'1 1.2
2017-Oct-01 13:30N 38°10' W 009°03'1 1.2
2017-Oct-01 13:00N 38°09' W 009°03'1 1.1
2017-Oct-01 12:30N 38°09' W 009°04'0 1.0
2017-Oct-01 12:00N 38°08' W 009°04'0 0.8
2017-Oct-01 11:31N 38°08' W 009°03'0 0.2
2017-Oct-01 11:01N 38°08' W 009°03'0 0.4
2017-Oct-01 10:30N 38°08' W 009°03'0 0.5
2017-Oct-01 10:00N 38°08' W 009°03'1 1.2
2017-Oct-01 09:30N 38°08' W 009°03'0 0.4
2017-Oct-01 09:00N 38°09' W 009°03'0 0.4
2017-Oct-01 08:30N 38°09' W 009°03'0 0.4
2017-Oct-01 08:00N 38°09' W 009°03'0 0.5
2017-Oct-01 07:30N 38°09' W 009°03'0 0.5
2017-Oct-01 07:00N 38°09' W 009°03'0 0.6
2017-Oct-01 06:30N 38°10' W 009°04'1 1.9
2017-Oct-01 06:00N 38°09' W 009°03'1 1.4
2017-Oct-01 05:30N 38°09' W 009°03'0 0.7
2017-Oct-01 05:00N 38°09' W 009°03'0 0.7
2017-Oct-01 04:30N 38°09' W 009°03'0 0.7
2017-Oct-01 04:00N 38°09' W 009°04'1 2.3
2017-Oct-01 03:30N 38°08' W 009°03'2 3.3
2017-Oct-01 03:01N 38°10' W 009°03'5 0.2
2017-Sep-30 01:40N 38°15' W 009°06'1 6.4
2017-Sep-30 01:30N 38°16' W 009°06'3 6.3
2017-Sep-30 01:00N 38°19' W 009°08'3 5.8
2017-Sep-30 00:30N 38°21' W 009°05'0 0.2
2017-Sep-30 00:00N 38°21' W 009°05'0 0.9
2017-Sep-29 23:29N 38°20' W 009°06'1 1.0
2017-Sep-29 23:00N 38°20' W 009°06'1 1.1
2017-Sep-29 22:29N 38°20' W 009°07'1 1.1
2017-Sep-29 21:59N 38°19' W 009°07'1 1.0
2017-Sep-29 21:27N 38°19' W 009°07'0 0.7
2017-Sep-29 21:00N 38°19' W 009°07'3 5.2
2017-Sep-29 20:30N 38°21' W 009°07'3 6.0
2017-Sep-29 20:00N 38°24' W 009°07'2 0.1
2017-Sep-29 03:59N 38°26' W 009°07'2 4.0
2017-Sep-29 03:30N 38°25' W 009°06'3 5.7
2017-Sep-29 03:01N 38°22' W 009°07'2 2.0
2017-Sep-29 02:00N 38°20' W 009°05'1 1.6
2017-Sep-29 01:30N 38°21' W 009°05'0 0.7
2017-Sep-29 01:00N 38°21' W 009°05'1 1.1
2017-Sep-29 00:30N 38°20' W 009°05'2 0.8
2017-Sep-28 22:16N 38°19' W 009°07'0 0.3
2017-Sep-28 22:00N 38°19' W 009°07'0 0.1
2017-Sep-28 21:31N 38°19' W 009°07'1 2.7
2017-Sep-28 21:01N 38°18' W 009°06'2 3.5
2017-Sep-28 20:31N 38°16' W 009°05'2 3.3
2017-Sep-28 20:01N 38°15' W 009°04'2 3.1
2017-Sep-28 19:31N 38°13' W 009°04'2 3.0
2017-Sep-28 19:01N 38°12' W 009°03'2 3.2
2017-Sep-28 18:30N 38°10' W 009°02'2 3.5
2017-Sep-28 18:00N 38°09' W 009°01'2 4.4
2017-Sep-28 17:31N 38°07' W 009°00'1 1.9
2017-Sep-28 17:01N 38°06' W 008°59'1 1.3
2017-Sep-28 16:31N 38°05' W 008°59'1 0.3
2017-Sep-28 11:45N 38°04' W 009°01'1 1.0
2017-Sep-28 10:37N 38°03' W 009°01'0 0.4
2017-Sep-28 10:30N 38°03' W 009°01'0 0.5
2017-Sep-28 10:00N 38°03' W 009°01'0 0.6
2017-Sep-28 09:30N 38°03' W 009°01'0 0.5
2017-Sep-28 09:00N 38°04' W 009°00'0 0.5
2017-Sep-28 08:30N 38°04' W 009°00'5 0.8
2017-Sep-28 03:01N 38°08' W 009°02'0 6.9
2017-Sep-28 03:00N 38°08' W 009°02'3 6.2
2017-Sep-28 02:30N 38°11' W 009°03'3 6.3
2017-Sep-28 02:00N 38°14' W 009°05'3 6.4
2017-Sep-28 01:30N 38°17' W 009°06'3 5.7
2017-Sep-28 01:00N 38°20' W 009°06'1 0.3
2017-Sep-27 22:00N 38°20' W 009°07'0 0.8
2017-Sep-27 21:30N 38°19' W 009°07'0 0.4
2017-Sep-27 20:57N 38°19' W 009°07'0 0.4
2017-Sep-27 20:29N 38°19' W 009°07'1 1.4
2017-Sep-27 19:38N 38°18' W 009°06'0 3.2
2017-Sep-27 19:30N 38°18' W 009°06'2 3.4
2017-Sep-27 19:00N 38°17' W 009°04'1 3.0
2017-Sep-27 18:30N 38°16' W 009°03'1 2.5
2017-Sep-27 18:00N 38°15' W 009°02'0 0.5
2017-Sep-27 17:30N 38°15' W 009°02'1 1.0
2017-Sep-27 17:00N 38°14' W 009°02'1 1.1
2017-Sep-27 16:08N 38°13' W 009°02'0 1.1
2017-Sep-27 16:00N 38°13' W 009°02'1 1.0
2017-Sep-27 15:30N 38°13' W 009°01'3 0.4
2017-Sep-27 08:51N 38°15' W 009°03'0 0.4
2017-Sep-27 08:30N 38°15' W 009°03'0 0.5
2017-Sep-27 08:00N 38°15' W 009°04'0 0.5
2017-Sep-27 07:30N 38°15' W 009°04'0 0.5
2017-Sep-27 07:00N 38°15' W 009°04'1 2.6
2017-Sep-27 06:30N 38°16' W 009°03'0 0.5
2017-Sep-27 06:00N 38°16' W 009°03'0 0.6
2017-Sep-27 05:30N 38°16' W 009°03'0 0.7
2017-Sep-27 05:00N 38°15' W 009°04'0 0.7
2017-Sep-27 04:30N 38°15' W 009°03'0 0.9
2017-Sep-27 04:00N 38°16' W 009°03'0 0.8
2017-Sep-27 03:30N 38°16' W 009°03'0 0.5
2017-Sep-27 03:00N 38°15' W 009°03'3 5.8
2017-Sep-27 02:30N 38°13' W 009°01'1 1.8
2017-Sep-27 02:00N 38°14' W 009°01'3 5.4
2017-Sep-27 01:30N 38°16' W 009°03'3 6.5
2017-Sep-27 01:00N 38°19' W 009°06'3 1.6
2017-Sep-26 23:13N 38°21' W 009°04'0 0.9
2017-Sep-26 22:59N 38°21' W 009°04'0 0.9
2017-Sep-26 22:30N 38°21' W 009°05'0 1.0
2017-Sep-26 22:00N 38°20' W 009°05'1 1.0
2017-Sep-26 21:30N 38°20' W 009°06'1 1.1
2017-Sep-26 20:58N 38°20' W 009°07'0 0.3
2017-Sep-26 20:30N 38°20' W 009°07'3 5.1
2017-Sep-26 20:00N 38°23' W 009°07'3 6.3
2017-Sep-26 19:29N 38°26' W 009°06'1 0.0
2017-Sep-26 05:21N 38°26' W 009°07'1 3.1
2017-Sep-26 05:00N 38°25' W 009°06'3 5.3
2017-Sep-26 04:30N 38°23' W 009°06'2 2.7
2017-Sep-26 03:38N 38°21' W 009°05'1 5.7
2017-Sep-26 03:30N 38°21' W 009°04'1 3.0
2017-Sep-26 03:00N 38°21' W 009°06'3 5.1
2017-Sep-26 02:30N 38°22' W 009°09'3 5.0
2017-Sep-26 01:56N 38°23' W 009°12'2 5.4
2017-Sep-26 01:30N 38°24' W 009°15'3 5.5
2017-Sep-26 01:00N 38°26' W 009°17'3 5.4
2017-Sep-26 00:30N 38°28' W 009°20'3 5.7
2017-Sep-26 00:00N 38°30' W 009°22'3 6.0
2017-Sep-25 23:30N 38°32' W 009°25'3 5.8
2017-Sep-25 23:00N 38°34' W 009°28'3 5.8
2017-Sep-25 22:30N 38°36' W 009°30'3 5.9
2017-Sep-25 22:00N 38°38' W 009°33'3 5.4
2017-Sep-25 21:30N 38°39' W 009°36'3 5.2
2017-Sep-25 21:00N 38°41' W 009°38'3 5.4
2017-Sep-25 20:30N 38°43' W 009°41'9 0.6
2017-Sep-25 05:52N 38°50' W 009°48'0 0.1
2017-Sep-25 05:30N 38°50' W 009°48'0 0.4
2017-Sep-25 05:00N 38°50' W 009°48'0 0.1
2017-Sep-25 04:30N 38°51' W 009°48'0 0.5
2017-Sep-25 04:00N 38°50' W 009°48'0 0.5
2017-Sep-25 03:30N 38°51' W 009°48'2 4.2
2017-Sep-25 03:00N 38°49' W 009°46'4 3.7
2017-Sep-25 01:54N 38°51' W 009°50'5 4.2
2017-Sep-25 00:44N 38°54' W 009°56'0 1.8
2017-Sep-25 00:29N 38°54' W 009°55'0 0.5
2017-Sep-24 23:56N 38°53' W 009°55'0 0.5
2017-Sep-24 23:30N 38°54' W 009°55'0 0.5
2017-Sep-24 22:59N 38°54' W 009°55'0 0.1
2017-Sep-24 20:55N 38°54' W 009°55'9 0.6
2017-Sep-24 04:26N 38°49' W 009°45'4 1.2
2017-Sep-24 00:57N 38°51' W 009°50'2 5.0
2017-Sep-24 00:30N 38°52' W 009°52'  

Dump ship's entire track history